Time;durP1;ratioP1;P1;durP2;ratioP2;P2;SDS_P1;SDS_P2;PMS_P1;PMS_P2;Temp;Humidity;BMP_temperature;BMP_pressure;BME280_temperature;BME280_humidity;BME280_pressure;Samples;Min_cycle;Max_cycle;Signal;HPM_P1;HPM_P2
2023/12/20 00:00:20;;;;;;;;;;;17.90;50.20;;;;;;1585382;73;742;-74
2023/12/20 00:02:22;;;;;;;;;;;17.90;50.20;;;;;;1601305;73;994;-78
2023/12/20 00:04:25;;;;;;;;;;;17.90;50.20;;;;;;1592592;73;1144;-75
2023/12/20 00:06:26;;;;;;;;;;;17.90;50.30;;;;;;1595941;73;691;-75
2023/12/20 00:08:28;;;;;;;;;;;17.90;50.20;;;;;;1590391;73;794;-75
2023/12/20 00:10:30;;;;;;;;;;;17.90;50.20;;;;;;1588084;73;786;-76
2023/12/20 00:12:32;;;;;;;;;;;18.00;50.20;;;;;;1596677;73;1941;-75
2023/12/20 00:14:34;;;;;;;;;;;17.90;50.20;;;;;;1593489;73;1250;-75
2023/12/20 00:16:36;;;;;;;;;;;17.90;50.20;;;;;;1604090;73;781;-74
2023/12/20 00:18:38;;;;;;;;;;;17.90;50.20;;;;;;1603720;73;784;-74
2023/12/20 00:20:39;;;;;;;;;;;17.90;50.20;;;;;;1608221;73;773;-74
2023/12/20 00:22:41;;;;;;;;;;;17.90;50.20;;;;;;1594701;73;806;-73
2023/12/20 00:24:43;;;;;;;;;;;17.80;50.10;;;;;;1591167;73;1208;-73
2023/12/20 00:26:45;;;;;;;;;;;17.90;50.20;;;;;;1590178;73;752;-75
2023/12/20 00:28:47;;;;;;;;;;;17.90;50.20;;;;;;1590613;73;1422;-75
2023/12/20 00:30:49;;;;;;;;;;;17.90;50.10;;;;;;1590934;73;759;-77
2023/12/20 00:32:51;;;;;;;;;;;17.90;50.20;;;;;;1596880;73;1926;-75
2023/12/20 00:34:53;;;;;;;;;;;17.90;50.10;;;;;;1599967;73;1134;-73
2023/12/20 00:36:54;;;;;;;;;;;17.90;50.10;;;;;;1602345;73;754;-75
2023/12/20 00:38:57;;;;;;;;;;;18.00;50.10;;;;;;1603334;73;745;-75
2023/12/20 00:40:58;;;;;;;;;;;17.90;50.10;;;;;;1606134;73;747;-72
2023/12/20 00:43:00;;;;;;;;;;;17.90;50.10;;;;;;1592268;73;756;-75
2023/12/20 00:45:04;;;;;;;;;;;17.90;50.10;;;;;;1593027;73;1091;-74
2023/12/20 00:47:06;;;;;;;;;;;17.90;50.10;;;;;;1603115;73;776;-76
2023/12/20 00:49:08;;;;;;;;;;;17.90;50.10;;;;;;1610375;73;688;-72
2023/12/20 00:51:10;;;;;;;;;;;17.90;50.10;;;;;;1608263;73;783;-72
2023/12/20 00:53:12;;;;;;;;;;;17.90;50.10;;;;;;1603739;73;1946;-72
2023/12/20 00:55:14;;;;;;;;;;;18.00;50.20;;;;;;1591904;73;755;-72
2023/12/20 00:57:15;;;;;;;;;;;17.90;50.10;;;;;;1598507;73;647;-74
2023/12/20 00:59:18;;;;;;;;;;;17.90;50.10;;;;;;1606312;73;797;-74
2023/12/20 01:01:20;;;;;;;;;;;17.90;50.10;;;;;;1592730;73;771;-73
2023/12/20 01:03:23;;;;;;;;;;;17.90;50.10;;;;;;1598621;73;1131;-75
2023/12/20 01:05:25;;;;;;;;;;;17.90;50.10;;;;;;1601589;73;747;-75
2023/12/20 01:07:27;;;;;;;;;;;17.90;50.10;;;;;;1601485;73;751;-75
2023/12/20 01:09:29;;;;;;;;;;;17.90;50.10;;;;;;1606730;73;739;-75
2023/12/20 01:11:30;;;;;;;;;;;17.90;50.10;;;;;;1630394;72;773;-75
2023/12/20 01:13:32;;;;;;;;;;;17.90;50.10;;;;;;1602184;73;1165;-74
2023/12/20 01:15:34;;;;;;;;;;;17.90;50.00;;;;;;1608327;73;721;-74
2023/12/20 01:17:36;;;;;;;;;;;17.90;50.00;;;;;;1596372;73;887;-74
2023/12/20 01:19:38;;;;;;;;;;;17.90;50.10;;;;;;1591737;73;869;-75
2023/12/20 01:21:42;;;;;;;;;;;17.90;50.00;;;;;;1612574;73;776;-74
2023/12/20 01:23:44;;;;;;;;;;;17.90;50.10;;;;;;1591988;73;1063;-74
2023/12/20 01:25:46;;;;;;;;;;;17.90;50.10;;;;;;1591977;73;1466;-74
2023/12/20 01:27:48;;;;;;;;;;;17.90;50.00;;;;;;1586857;73;761;-72
2023/12/20 01:29:50;;;;;;;;;;;17.90;50.10;;;;;;1606127;73;752;-75
2023/12/20 01:31:52;;;;;;;;;;;18.00;50.10;;;;;;1600523;73;2364;-75
2023/12/20 01:33:54;;;;;;;;;;;17.90;50.00;;;;;;1596071;73;1181;-75
2023/12/20 01:35:55;;;;;;;;;;;17.90;50.10;;;;;;1595698;73;658;-76
2023/12/20 01:37:57;;;;;;;;;;;17.90;50.00;;;;;;1588081;73;781;-72
2023/12/20 01:39:59;;;;;;;;;;;17.90;50.00;;;;;;1598811;73;750;-76
2023/12/20 01:42:02;;;;;;;;;;;17.90;50.10;;;;;;1599592;73;776;-73
2023/12/20 01:44:04;;;;;;;;;;;17.90;50.10;;;;;;1602334;73;1170;-74
2023/12/20 01:46:06;;;;;;;;;;;17.90;50.00;;;;;;1599422;73;768;-74
2023/12/20 01:48:08;;;;;;;;;;;17.90;50.00;;;;;;1587299;73;774;-75
2023/12/20 01:50:10;;;;;;;;;;;17.90;50.00;;;;;;1600370;73;775;-74
2023/12/20 01:52:12;;;;;;;;;;;17.90;50.00;;;;;;1595352;73;1944;-74
2023/12/20 01:54:13;;;;;;;;;;;17.90;50.00;;;;;;1595080;73;1186;-74
2023/12/20 01:56:16;;;;;;;;;;;17.80;49.90;;;;;;1601585;73;745;-74
2023/12/20 01:58:18;;;;;;;;;;;17.80;49.90;;;;;;1595329;73;806;-75
2023/12/20 02:00:23;;;;;;;;;;;17.90;50.10;;;;;;1594014;73;765;-71
2023/12/20 02:02:23;;;;;;;;;;;17.90;50.00;;;;;;1596217;73;1585;-72
2023/12/20 02:04:25;;;;;;;;;;;17.90;50.10;;;;;;1603080;73;1131;-75
2023/12/20 02:06:29;;;;;;;;;;;17.90;50.00;;;;;;1600427;73;794;-72
2023/12/20 02:08:30;;;;;;;;;;;17.80;49.90;;;;;;1604058;73;776;-75
2023/12/20 02:10:32;;;;;;;;;;;17.90;50.10;;;;;;1596875;73;758;-74
2023/12/20 02:12:35;;;;;;;;;;;17.90;50.00;;;;;;1602303;73;1940;-75
2023/12/20 02:14:37;;;;;;;;;;;17.80;49.90;;;;;;1605218;73;1218;-74
2023/12/20 02:16:38;;;;;;;;;;;17.90;50.00;;;;;;1596964;73;802;-75
2023/12/20 02:18:40;;;;;;;;;;;17.90;50.00;;;;;;1593921;73;788;-76
2023/12/20 02:20:42;;;;;;;;;;;17.80;49.80;;;;;;1608772;73;781;-72
2023/12/20 02:22:44;;;;;;;;;;;17.90;50.00;;;;;;1599227;73;1440;-73
2023/12/20 02:24:46;;;;;;;;;;;17.80;49.80;;;;;;1593190;73;1159;-74
2023/12/20 02:26:48;;;;;;;;;;;17.90;50.00;;;;;;1583336;73;722;-75
2023/12/20 02:28:50;;;;;;;;;;;17.80;49.80;;;;;;1600374;73;750;-75
2023/12/20 02:30:51;;;;;;;;;;;17.90;50.00;;;;;;1595247;73;764;-75
2023/12/20 02:32:53;;;;;;;;;;;17.80;49.80;;;;;;1590749;73;1933;-74
2023/12/20 02:34:56;;;;;;;;;;;17.80;49.80;;;;;;1595686;73;1144;-73
2023/12/20 02:36:58;;;;;;;;;;;17.90;49.90;;;;;;1600871;73;771;-76
2023/12/20 02:39:00;;;;;;;;;;;17.90;49.90;;;;;;1606344;73;775;-75
2023/12/20 02:41:01;;;;;;;;;;;17.80;49.90;;;;;;1603478;73;749;-74
2023/12/20 02:43:03;;;;;;;;;;;17.80;49.90;;;;;;1598086;73;782;-74
2023/12/20 02:45:06;;;;;;;;;;;17.80;49.90;;;;;;1604474;73;1175;-75
2023/12/20 02:47:07;;;;;;;;;;;17.80;49.80;;;;;;1594036;73;746;-75
2023/12/20 02:49:09;;;;;;;;;;;17.80;49.80;;;;;;1602429;73;759;-75
2023/12/20 02:51:11;;;;;;;;;;;17.90;50.00;;;;;;1607938;73;781;-75
2023/12/20 02:53:13;;;;;;;;;;;17.90;50.00;;;;;;1604240;73;1941;-72
2023/12/20 02:55:15;;;;;;;;;;;17.90;50.00;;;;;;1607737;73;759;-76
2023/12/20 02:57:17;;;;;;;;;;;17.90;49.90;;;;;;1606190;73;802;-75
2023/12/20 02:59:19;;;;;;;;;;;17.90;49.90;;;;;;1594916;73;788;-74
2023/12/20 03:01:21;;;;;;;;;;;17.90;49.90;;;;;;1598438;73;731;-75
2023/12/20 03:03:23;;;;;;;;;;;17.80;49.70;;;;;;1596427;73;1168;-74
2023/12/20 03:05:25;;;;;;;;;;;17.80;49.80;;;;;;1596721;73;763;-75
2023/12/20 03:07:26;;;;;;;;;;;17.80;49.80;;;;;;1605153;73;753;-75
2023/12/20 03:09:28;;;;;;;;;;;17.80;49.70;;;;;;1593871;73;779;-75
2023/12/20 03:11:30;;;;;;;;;;;17.80;49.70;;;;;;1591285;73;746;-77
2023/12/20 03:13:32;;;;;;;;;;;17.90;49.80;;;;;;1600867;73;1936;-75
2023/12/20 03:15:34;;;;;;;;;;;17.80;49.70;;;;;;1599732;73;756;-75
2023/12/20 03:17:36;;;;;;;;;;;17.80;49.70;;;;;;1591685;73;1420;-72
2023/12/20 03:19:38;;;;;;;;;;;17.80;49.70;;;;;;1600563;73;781;-75
2023/12/20 03:21:40;;;;;;;;;;;17.90;49.90;;;;;;1602812;73;780;-72
2023/12/20 03:23:42;;;;;;;;;;;17.90;49.90;;;;;;1595359;73;1155;-73
2023/12/20 03:25:43;;;;;;;;;;;17.80;49.70;;;;;;1595039;73;769;-75
2023/12/20 03:27:45;;;;;;;;;;;17.90;49.90;;;;;;1595038;73;782;-76
2023/12/20 03:29:47;;;;;;;;;;;17.80;49.70;;;;;;1599993;73;780;-75
2023/12/20 03:31:49;;;;;;;;;;;17.90;49.90;;;;;;1581767;73;742;-75
2023/12/20 03:33:53;;;;;;;;;;;17.80;49.80;;;;;;1601000;73;1925;-75
2023/12/20 03:35:54;;;;;;;;;;;17.90;49.80;;;;;;1605873;73;1535;-75
2023/12/20 03:37:57;;;;;;;;;;;17.90;49.90;;;;;;1607989;73;777;-74
2023/12/20 03:39:58;;;;;;;;;;;17.80;49.70;;;;;;1604100;73;757;-75
2023/12/20 03:42:00;;;;;;;;;;;17.90;49.90;;;;;;1607377;73;761;-74
2023/12/20 03:44:02;;;;;;;;;;;17.90;49.90;;;;;;1606983;73;1148;-72
2023/12/20 03:46:04;;;;;;;;;;;17.80;49.80;;;;;;1592841;73;758;-72
2023/12/20 03:48:06;;;;;;;;;;;17.80;49.70;;;;;;1594276;73;776;-75
2023/12/20 03:50:08;;;;;;;;;;;17.80;49.70;;;;;;1605332;73;784;-72
2023/12/20 03:52:10;;;;;;;;;;;17.90;49.90;;;;;;1599560;73;757;-72
2023/12/20 03:54:12;;;;;;;;;;;17.80;49.80;;;;;;1593216;73;1960;-72
2023/12/20 03:56:13;;;;;;;;;;;17.90;49.90;;;;;;1596667;73;751;-74
2023/12/20 03:58:15;;;;;;;;;;;17.80;49.80;;;;;;1597543;73;788;-72
2023/12/20 04:00:17;;;;;;;;;;;17.90;49.90;;;;;;1608618;73;766;-75
2023/12/20 04:02:19;;;;;;;;;;;17.90;50.00;;;;;;1612048;73;789;-75
2023/12/20 04:04:21;;;;;;;;;;;17.90;49.90;;;;;;1604263;73;1145;-75
2023/12/20 04:06:23;;;;;;;;;;;17.80;49.80;;;;;;1600650;73;765;-75
2023/12/20 04:08:25;;;;;;;;;;;17.80;49.80;;;;;;1600092;73;750;-76
2023/12/20 04:10:26;;;;;;;;;;;17.80;49.80;;;;;;1611106;73;738;-77
2023/12/20 04:12:28;;;;;;;;;;;17.90;49.90;;;;;;1608578;73;775;-75
2023/12/20 04:14:30;;;;;;;;;;;17.80;49.80;;;;;;1593928;73;1961;-73
2023/12/20 04:16:32;;;;;;;;;;;17.80;49.70;;;;;;1608347;73;757;-73
2023/12/20 04:18:34;;;;;;;;;;;17.90;49.90;;;;;;1609319;73;756;-74
2023/12/20 04:20:36;;;;;;;;;;;17.80;49.80;;;;;;1605802;73;765;-75
2023/12/20 04:22:38;;;;;;;;;;;17.80;49.70;;;;;;1602196;73;673;-72
2023/12/20 04:24:42;;;;;;;;;;;17.80;49.80;;;;;;1604094;73;1202;-75
2023/12/20 04:26:44;;;;;;;;;;;17.80;49.70;;;;;;1600047;73;1234;-72
2023/12/20 04:28:45;;;;;;;;;;;17.80;49.80;;;;;;1591188;73;766;-72
2023/12/20 04:30:47;;;;;;;;;;;17.80;49.70;;;;;;1592017;73;751;-72
2023/12/20 04:32:49;;;;;;;;;;;17.90;49.90;;;;;;1600078;73;1943;-75
2023/12/20 04:34:51;;;;;;;;;;;17.80;49.70;;;;;;1590979;73;1179;-74
2023/12/20 04:36:53;;;;;;;;;;;17.80;49.70;;;;;;1603320;73;739;-74
2023/12/20 04:38:55;;;;;;;;;;;17.80;49.80;;;;;;1600375;73;832;-75
2023/12/20 04:40:57;;;;;;;;;;;17.90;49.90;;;;;;1602234;73;786;-74
2023/12/20 04:42:59;;;;;;;;;;;17.80;49.80;;;;;;1593536;73;804;-77
2023/12/20 04:45:01;;;;;;;;;;;17.80;49.80;;;;;;1594326;73;1124;-72
2023/12/20 04:47:03;;;;;;;;;;;17.80;49.70;;;;;;1585714;73;661;-74
2023/12/20 04:49:04;;;;;;;;;;;17.90;49.90;;;;;;1603596;73;747;-73
2023/12/20 04:51:06;;;;;;;;;;;17.80;49.70;;;;;;1601690;73;729;-75
2023/12/20 04:53:08;;;;;;;;;;;17.90;49.80;;;;;;1600742;73;1940;-72
2023/12/20 04:55:10;;;;;;;;;;;17.90;49.80;;;;;;1595444;73;770;-76
2023/12/20 04:57:12;;;;;;;;;;;17.80;49.70;;;;;;1589999;73;736;-74
2023/12/20 04:59:14;;;;;;;;;;;17.80;49.70;;;;;;1595713;73;785;-75
2023/12/20 05:01:16;;;;;;;;;;;17.80;49.70;;;;;;1600428;73;764;-74
2023/12/20 05:03:18;;;;;;;;;;;17.80;49.70;;;;;;1604688;73;1116;-75
2023/12/20 05:05:21;;;;;;;;;;;17.80;49.70;;;;;;1605703;73;778;-74
2023/12/20 05:07:23;;;;;;;;;;;17.90;49.80;;;;;;1602512;73;772;-74
2023/12/20 05:09:24;;;;;;;;;;;17.80;49.70;;;;;;1596215;73;755;-77
2023/12/20 05:11:26;;;;;;;;;;;17.80;49.70;;;;;;1597931;73;1633;-75
2023/12/20 05:13:28;;;;;;;;;;;17.80;49.70;;;;;;1602756;73;1937;-74
2023/12/20 05:15:30;;;;;;;;;;;17.80;49.70;;;;;;1599374;73;728;-75
2023/12/20 05:17:32;;;;;;;;;;;17.80;49.70;;;;;;1604001;73;758;-72
2023/12/20 05:19:38;;;;;;;;;;;17.90;49.90;;;;;;1608553;73;648;-73
2023/12/20 05:21:37;;;;;;;;;;;17.80;49.70;;;;;;1596495;73;939;-73
2023/12/20 05:23:39;;;;;;;;;;;17.80;49.70;;;;;;1597010;73;1242;-74
2023/12/20 05:25:41;;;;;;;;;;;17.80;49.70;;;;;;1599578;73;773;-75
2023/12/20 05:27:43;;;;;;;;;;;17.80;49.70;;;;;;1582292;73;779;-72
2023/12/20 05:29:45;;;;;;;;;;;17.80;49.70;;;;;;1592636;73;759;-75
2023/12/20 05:31:47;;;;;;;;;;;17.80;49.70;;;;;;1597941;73;766;-75
2023/12/20 05:33:48;;;;;;;;;;;17.80;49.70;;;;;;1595998;73;1941;-75
2023/12/20 05:35:50;;;;;;;;;;;17.80;49.70;;;;;;1600119;73;740;-77
2023/12/20 05:37:52;;;;;;;;;;;17.80;49.70;;;;;;1612061;73;762;-75
2023/12/20 05:39:54;;;;;;;;;;;17.80;49.70;;;;;;1591488;73;763;-72
2023/12/20 05:41:56;;;;;;;;;;;17.90;49.80;;;;;;1589593;73;759;-75
2023/12/20 05:44:00;;;;;;;;;;;17.80;49.70;;;;;;1607646;73;1147;-74
2023/12/20 05:46:02;;;;;;;;;;;17.80;49.70;;;;;;1593411;73;801;-72
2023/12/20 05:48:04;;;;;;;;;;;17.90;49.90;;;;;;1597362;73;775;-75
2023/12/20 05:50:06;;;;;;;;;;;17.90;49.80;;;;;;1597012;73;815;-75
2023/12/20 05:52:08;;;;;;;;;;;17.80;49.70;;;;;;1596890;73;759;-75
2023/12/20 05:54:10;;;;;;;;;;;17.80;49.80;;;;;;1598202;73;1933;-74
2023/12/20 05:56:12;;;;;;;;;;;17.80;49.70;;;;;;1597818;73;677;-75
2023/12/20 05:58:14;;;;;;;;;;;17.80;49.70;;;;;;1603942;73;755;-75
2023/12/20 06:00:16;;;;;;;;;;;17.80;49.70;;;;;;1606219;73;755;-75
2023/12/20 06:02:18;;;;;;;;;;;17.80;49.70;;;;;;1601392;73;771;-75
2023/12/20 06:04:20;;;;;;;;;;;17.80;49.70;;;;;;1590757;73;1169;-76
2023/12/20 06:06:22;;;;;;;;;;;17.80;49.70;;;;;;1597930;73;1414;-74
2023/12/20 06:08:23;;;;;;;;;;;17.80;49.70;;;;;;1603828;73;748;-73
2023/12/20 06:10:25;;;;;;;;;;;17.80;49.70;;;;;;1596416;73;775;-74
2023/12/20 06:12:28;;;;;;;;;;;17.80;49.70;;;;;;1597557;73;771;-74
2023/12/20 06:14:35;;;;;;;;;;;17.80;49.70;;;;;;1596970;73;1935;-75
2023/12/20 06:16:34;;;;;;;;;;;17.80;49.70;;;;;;1602099;73;736;-75
2023/12/20 06:18:36;;;;;;;;;;;17.80;49.70;;;;;;1590235;73;782;-72
2023/12/20 06:20:38;;;;;;;;;;;17.80;49.70;;;;;;1598154;73;643;-75
2023/12/20 06:22:40;;;;;;;;;;;17.80;49.70;;;;;;1600012;73;791;-74
2023/12/20 06:24:42;;;;;;;;;;;17.90;49.80;;;;;;1587926;73;1204;-72
2023/12/20 06:26:44;;;;;;;;;;;17.80;49.70;;;;;;1589073;73;727;-76
2023/12/20 06:28:46;;;;;;;;;;;17.80;49.60;;;;;;1602773;73;751;-72
2023/12/20 06:30:49;;;;;;;;;;;17.80;49.70;;;;;;1600523;73;762;-73
2023/12/20 06:32:51;;;;;;;;;;;17.80;49.70;;;;;;1596486;73;814;-75
2023/12/20 06:34:53;;;;;;;;;;;17.90;49.70;;;;;;1595354;73;1949;-75
2023/12/20 06:36:54;;;;;;;;;;;17.80;49.70;;;;;;1596506;73;746;-77
2023/12/20 06:38:56;;;;;;;;;;;17.80;49.70;;;;;;1597363;73;762;-72
2023/12/20 06:40:59;;;;;;;;;;;17.80;49.70;;;;;;1606198;73;762;-75
2023/12/20 06:43:01;;;;;;;;;;;17.80;49.60;;;;;;1603164;73;751;-73
2023/12/20 06:45:03;;;;;;;;;;;17.80;49.60;;;;;;1599078;73;1165;-74
2023/12/20 06:47:04;;;;;;;;;;;17.90;49.80;;;;;;1599861;73;783;-74
2023/12/20 06:49:06;;;;;;;;;;;17.80;49.60;;;;;;1605886;73;769;-75
2023/12/20 06:51:10;;;;;;;;;;;17.80;49.70;;;;;;1601538;73;766;-75
2023/12/20 06:53:12;;;;;;;;;;;17.80;49.60;;;;;;1594181;73;1573;-76
2023/12/20 06:55:14;;;;;;;;;;;17.80;49.60;;;;;;1606767;73;1940;-75
2023/12/20 06:57:15;;;;;;;;;;;17.80;49.70;;;;;;1593152;73;756;-73
2023/12/20 06:59:17;;;;;;;;;;;17.80;49.60;;;;;;1594082;73;805;-75
2023/12/20 07:01:19;;;;;;;;;;;17.80;49.70;;;;;;1601857;73;724;-75
2023/12/20 07:03:21;;;;;;;;;;;17.80;49.70;;;;;;1586716;73;1475;-75
2023/12/20 07:05:23;;;;;;;;;;;17.80;49.70;;;;;;1594256;73;760;-75
2023/12/20 07:07:25;;;;;;;;;;;17.80;49.60;;;;;;1601682;73;742;-76
2023/12/20 07:09:27;;;;;;;;;;;17.80;49.60;;;;;;1605927;73;798;-75
2023/12/20 07:11:29;;;;;;;;;;;17.80;49.60;;;;;;1606142;73;741;-78
2023/12/20 07:13:31;;;;;;;;;;;17.80;49.60;;;;;;1599839;73;1166;-74
2023/12/20 07:15:33;;;;;;;;;;;17.80;49.60;;;;;;1596657;73;1933;-74
2023/12/20 07:17:35;;;;;;;;;;;17.80;49.60;;;;;;1601114;73;788;-75
2023/12/20 07:19:36;;;;;;;;;;;17.80;49.60;;;;;;1593706;73;779;-75
2023/12/20 07:21:38;;;;;;;;;;;17.80;49.60;;;;;;1600625;73;781;-75
2023/12/20 07:23:40;;;;;;;;;;;17.80;49.60;;;;;;1604750;73;1242;-74
2023/12/20 07:25:42;;;;;;;;;;;17.80;49.60;;;;;;1560609;74;788;-74
2023/12/20 07:27:44;;;;;;;;;;;17.80;49.60;;;;;;1570163;74;759;-74
2023/12/20 07:29:46;;;;;;;;;;;17.80;49.60;;;;;;1583499;74;819;-72
2023/12/20 07:31:48;;;;;;;;;;;17.80;49.60;;;;;;1575700;74;770;-75
2023/12/20 07:33:50;;;;;;;;;;;17.80;49.60;;;;;;1570606;74;1147;-74
2023/12/20 07:35:51;;;;;;;;;;;17.80;49.60;;;;;;1571543;74;1936;-72
2023/12/20 07:37:53;;;;;;;;;;;17.80;49.60;;;;;;1579639;74;759;-75
2023/12/20 07:39:55;;;;;;;;;;;17.80;49.70;;;;;;1583325;74;764;-75
2023/12/20 07:41:57;;;;;;;;;;;17.70;49.70;;;;;;1574517;74;785;-72
2023/12/20 07:43:59;;;;;;;;;;;17.80;49.60;;;;;;1570900;74;1164;-74
2023/12/20 07:46:02;;;;;;;;;;;17.80;49.70;;;;;;1546836;76;762;-73
2023/12/20 07:48:04;;;;;;;;;;;17.80;49.70;;;;;;1563740;74;991;-74
2023/12/20 07:50:06;;;;;;;;;;;17.70;49.60;;;;;;1577253;74;799;-74
2023/12/20 07:52:09;;;;;;;;;;;17.80;49.60;;;;;;1566958;74;669;-74
2023/12/20 07:54:10;;;;;;;;;;;17.80;49.60;;;;;;1572505;74;1934;-74
2023/12/20 07:56:17;;;;;;;;;;;17.80;49.70;;;;;;1583236;74;768;-74
2023/12/20 07:58:19;;;;;;;;;;;17.80;49.60;;;;;;1562077;74;995;-75
2023/12/20 08:00:21;;;;;;;;;;;17.80;49.70;;;;;;1574870;74;1566;-74
2023/12/20 08:02:22;;;;;;;;;;;17.80;49.60;;;;;;1570682;74;805;-73
2023/12/20 08:04:24;;;;;;;;;;;17.80;49.60;;;;;;1562576;74;1132;-74
2023/12/20 08:06:26;;;;;;;;;;;17.80;49.60;;;;;;1569530;74;750;-72
2023/12/20 08:08:28;;;;;;;;;;;17.80;49.60;;;;;;1567446;74;739;-74
2023/12/20 08:10:30;;;;;;;;;;;17.70;49.60;;;;;;1566326;74;758;-74
2023/12/20 08:12:33;;;;;;;;;;;17.80;49.60;;;;;;1569329;74;745;-75
2023/12/20 08:14:35;;;;;;;;;;;17.80;49.70;;;;;;1565651;73;1929;-74
2023/12/20 08:16:37;;;;;;;;;;;17.80;49.60;;;;;;1584825;74;803;-72
2023/12/20 08:18:39;;;;;;;;;;;17.80;49.70;;;;;;1564841;74;809;-74
2023/12/20 08:20:40;;;;;;;;;;;17.80;49.60;;;;;;1570035;74;792;-75
2023/12/20 08:22:42;;;;;;;;;;;17.80;49.60;;;;;;1557803;74;766;-74
2023/12/20 08:24:44;;;;;;;;;;;17.80;49.60;;;;;;1565379;74;1137;-77
2023/12/20 08:26:46;;;;;;;;;;;17.80;49.60;;;;;;1572763;74;754;-72
2023/12/20 08:28:48;;;;;;;;;;;17.80;49.60;;;;;;1558732;74;760;-74
2023/12/20 08:30:53;;;;;;;;;;;17.80;49.50;;;;;;1573286;74;799;-74
2023/12/20 08:32:53;;;;;;;;;;;17.80;49.60;;;;;;1561201;74;1571;-73
2023/12/20 08:34:56;;;;;;;;;;;17.80;49.50;;;;;;1576189;74;1939;-74
2023/12/20 08:36:57;;;;;;;;;;;17.80;49.50;;;;;;1568852;74;772;-75
2023/12/20 08:39:00;;;;;;;;;;;17.80;49.50;;;;;;1563327;74;735;-75
2023/12/20 08:41:04;;;;;;;;;;;17.70;49.60;;;;;;1563247;74;778;-72
2023/12/20 08:43:06;;;;;;;;;;;17.80;49.50;;;;;;1559996;74;1472;-75
2023/12/20 08:45:08;;;;;;;;;;;17.70;49.50;;;;;;1572222;74;1177;-77
2023/12/20 08:47:13;;;;;;;;;;;17.80;49.60;;;;;;1564124;74;656;-77
2023/12/20 08:49:14;;;;;;;;;;;17.80;49.60;;;;;;1569496;74;1067;-74
2023/12/20 08:51:15;;;;;;;;;;;17.80;49.60;;;;;;1571259;74;762;-74
2023/12/20 08:53:18;;;;;;;;;;;17.80;49.60;;;;;;1569213;74;1225;-76
2023/12/20 08:55:20;;;;;;;;;;;17.80;49.50;;;;;;1565930;74;1935;-74
2023/12/20 08:57:23;;;;;;;;;;;17.70;49.60;;;;;;1570651;74;767;-72
2023/12/20 08:59:25;;;;;;;;;;;17.80;49.60;;;;;;1567680;74;730;-71
2023/12/20 09:01:27;;;;;;;;;;;17.80;49.60;;;;;;1536976;75;805;-75
2023/12/20 09:03:29;;;;;;;;;;;17.80;49.60;;;;;;1559227;74;1182;-75
2023/12/20 09:05:30;;;;;;;;;;;17.80;49.60;;;;;;1534687;76;715;-75
2023/12/20 09:07:32;;;;;;;;;;;17.80;49.60;;;;;;1536233;76;737;-74
2023/12/20 09:09:34;;;;;;;;;;;17.80;49.60;;;;;;1530611;75;662;-75
2023/12/20 09:11:36;;;;;;;;;;;17.80;49.60;;;;;;1565340;74;670;-72
2023/12/20 09:13:38;;;;;;;;;;;17.70;49.50;;;;;;1560428;74;1109;-75
2023/12/20 09:15:40;;;;;;;;;;;17.80;49.60;;;;;;1555118;74;1938;-74
2023/12/20 09:17:43;;;;;;;;;;;17.80;49.60;;;;;;1531900;76;753;-73
2023/12/20 09:19:45;;;;;;;;;;;17.80;49.60;;;;;;1538938;76;680;-75
2023/12/20 09:21:47;;;;;;;;;;;17.80;49.60;;;;;;1550792;75;756;-74
2023/12/20 09:23:49;;;;;;;;;;;17.70;49.60;;;;;;1540469;75;1186;-74
2023/12/20 09:25:51;;;;;;;;;;;17.80;49.50;;;;;;1541051;75;749;-74
2023/12/20 09:27:53;;;;;;;;;;;17.80;49.40;;;;;;1571688;74;759;-75
2023/12/20 09:29:55;;;;;;;;;;;17.80;49.50;;;;;;1532258;75;745;-74
2023/12/20 09:31:57;;;;;;;;;;;17.70;49.60;;;;;;1533440;76;763;-74
2023/12/20 09:33:59;;;;;;;;;;;17.70;49.60;;;;;;1572641;74;1155;-76
2023/12/20 09:36:01;;;;;;;;;;;17.80;49.60;;;;;;1567393;74;1943;-75
2023/12/20 09:38:02;;;;;;;;;;;17.80;49.60;;;;;;1572291;74;758;-72
2023/12/20 09:40:04;;;;;;;;;;;17.80;49.60;;;;;;1566093;74;808;-74
2023/12/20 09:42:07;;;;;;;;;;;17.80;49.60;;;;;;1568497;74;794;-75
2023/12/20 09:44:08;;;;;;;;;;;17.80;49.60;;;;;;1570384;74;1169;-73
2023/12/20 09:46:10;;;;;;;;;;;17.70;49.50;;;;;;1571608;74;762;-72
2023/12/20 09:48:14;;;;;;;;;;;17.70;49.60;;;;;;1558937;74;745;-75
2023/12/20 09:50:16;;;;;;;;;;;17.80;49.60;;;;;;1566535;74;750;-76
2023/12/20 09:52:18;;;;;;;;;;;17.80;49.60;;;;;;1539563;75;1526;-72
2023/12/20 09:54:21;;;;;;;;;;;17.70;49.60;;;;;;1539496;76;1234;-73
2023/12/20 09:56:23;;;;;;;;;;;17.80;49.60;;;;;;1534804;76;1956;-74
2023/12/20 09:58:25;;;;;;;;;;;17.80;49.60;;;;;;1558624;74;753;-73
2023/12/20 10:00:27;;;;;;;;;;;17.80;49.60;;;;;;1567409;74;830;-75
2023/12/20 10:02:29;;;;;;;;;;;17.80;49.60;;;;;;1559025;74;779;-75
2023/12/20 10:04:32;;;;;;;;;;;17.70;49.60;;;;;;1568428;74;1167;-71
2023/12/20 10:06:34;;;;;;;;;;;17.80;49.60;;;;;;1540563;76;770;-72
2023/12/20 10:08:36;;;;;;;;;;;17.80;49.60;;;;;;1548576;75;725;-75
2023/12/20 10:10:37;;;;;;;;;;;17.70;49.60;;;;;;1538228;75;669;-76
2023/12/20 10:12:39;;;;;;;;;;;17.80;49.60;;;;;;1535854;75;720;-73
2023/12/20 10:14:41;;;;;;;;;;;17.70;49.60;;;;;;1566503;74;1149;-74
2023/12/20 10:16:43;;;;;;;;;;;17.80;49.60;;;;;;1535018;76;1941;-74
2023/12/20 10:18:48;;;;;;;;;;;17.80;49.60;;;;;;1539013;76;770;-73
2023/12/20 10:20:50;;;;;;;;;;;17.80;49.60;;;;;;1538677;75;779;-74
2023/12/20 10:22:53;;;;;;;;;;;17.80;49.60;;;;;;1538082;75;777;-74
2023/12/20 10:24:56;;;;;;;;;;;17.80;49.70;;;;;;1547888;75;1142;-75
2023/12/20 10:27:00;;;;;;;;;;;17.80;49.50;;;;;;1542664;75;778;-75
2023/12/20 10:29:04;;;;;;;;;;;17.70;49.60;;;;;;1541558;75;1011;-74
2023/12/20 10:31:06;;;;;;;;;;;17.70;49.60;;;;;;1536319;75;912;-73
2023/12/20 10:33:08;;;;;;;;;;;17.80;49.60;;;;;;1538452;75;787;-74
2023/12/20 10:35:10;;;;;;;;;;;17.80;49.60;;;;;;1556211;74;1946;-74
2023/12/20 10:37:11;;;;;;;;;;;17.80;49.60;;;;;;1529933;75;704;-74
2023/12/20 10:39:13;;;;;;;;;;;17.80;49.60;;;;;;1543486;75;763;-74
2023/12/20 10:41:17;;;;;;;;;;;17.70;49.60;;;;;;1530875;75;828;-74
2023/12/20 10:43:18;;;;;;;;;;;17.80;49.60;;;;;;1540623;75;1148;-74
2023/12/20 10:45:20;;;;;;;;;;;17.80;49.60;;;;;;1542750;75;697;-74
2023/12/20 10:47:22;;;;;;;;;;;17.80;49.60;;;;;;1566333;74;1437;-75
2023/12/20 10:49:24;;;;;;;;;;;17.80;49.60;;;;;;1563976;74;792;-74
2023/12/20 10:51:32;;;;;;;;;;;17.80;49.60;;;;;;1557538;74;745;-76
2023/12/20 10:53:34;;;;;;;;;;;17.70;49.60;;;;;;1560977;74;1241;-74
2023/12/20 10:55:36;;;;;;;;;;;17.80;49.60;;;;;;1565057;74;1948;-71
2023/12/20 10:57:37;;;;;;;;;;;17.70;49.60;;;;;;1570370;74;751;-74
2023/12/20 10:59:39;;;;;;;;;;;17.80;49.60;;;;;;1573398;74;786;-75
2023/12/20 11:01:41;;;;;;;;;;;17.80;49.60;;;;;;1583940;74;701;-69
2023/12/20 11:03:45;;;;;;;;;;;17.70;49.60;;;;;;1560886;74;1155;-74
2023/12/20 11:05:51;;;;;;;;;;;17.80;49.60;;;;;;1537454;75;1159;-74
2023/12/20 11:07:56;;;;;;;;;;;17.80;49.60;;;;;;1551134;74;688;-74
2023/12/20 11:10:00;;;;;;;;;;;17.70;49.60;;;;;;1530287;75;1640;-73
2023/12/20 11:12:07;;;;;;;;;;;17.80;49.60;;;;;;1527403;76;1075;-74
2023/12/20 11:14:09;;;;;;;;;;;17.70;49.60;;;;;;1563516;74;1160;-73
2023/12/20 11:16:11;;;;;;;;;;;17.80;49.60;;;;;;1576578;74;1932;-74
2023/12/20 11:18:12;;;;;;;;;;;17.70;49.60;;;;;;1576518;74;775;-74
2023/12/20 11:20:14;;;;;;;;;;;17.80;49.60;;;;;;1564731;74;782;-71
2023/12/20 11:22:16;;;;;;;;;;;17.80;49.60;;;;;;1561015;74;704;-74
2023/12/20 11:24:20;;;;;;;;;;;17.80;49.60;;;;;;1552003;76;1476;-75
2023/12/20 11:26:23;;;;;;;;;;;17.70;49.60;;;;;;1533007;76;1597;-70
2023/12/20 11:28:25;;;;;;;;;;;17.80;49.60;;;;;;1538649;76;1060;-70
2023/12/20 11:30:27;;;;;;;;;;;17.80;49.60;;;;;;1580174;74;740;-74
2023/12/20 11:32:29;;;;;;;;;;;17.80;49.70;;;;;;1518494;77;1179;-74
2023/12/20 11:34:34;;;;;;;;;;;17.80;49.60;;;;;;1564971;74;1162;-74
2023/12/20 11:36:36;;;;;;;;;;;17.80;49.60;;;;;;1508207;76;1957;-74
2023/12/20 11:38:38;;;;;;;;;;;17.80;49.60;;;;;;1599657;73;794;-74
2023/12/20 11:40:40;;;;;;;;;;;17.80;49.60;;;;;;1596492;73;652;-74
2023/12/20 11:42:42;;;;;;;;;;;17.80;49.70;;;;;;1568567;74;1154;-72
2023/12/20 11:44:44;;;;;;;;;;;17.80;49.70;;;;;;1602958;73;1468;-75
2023/12/20 11:46:47;;;;;;;;;;;17.70;49.60;;;;;;1585136;73;756;-74
2023/12/20 11:48:49;;;;;;;;;;;17.70;49.60;;;;;;1605337;73;482;-72
2023/12/20 11:50:50;;;;;;;;;;;17.80;49.70;;;;;;1588869;73;773;-73
2023/12/20 11:52:53;;;;;;;;;;;17.70;49.60;;;;;;1605478;73;745;-76
2023/12/20 11:54:55;;;;;;;;;;;17.80;49.60;;;;;;1603485;73;1186;-76
2023/12/20 11:56:57;;;;;;;;;;;17.70;49.70;;;;;;1609025;73;1949;-74
2023/12/20 11:58:59;;;;;;;;;;;17.80;49.60;;;;;;1607016;73;721;-74
2023/12/20 12:01:02;;;;;;;;;;;17.80;49.70;;;;;;1596219;73;727;-71
2023/12/20 12:03:04;;;;;;;;;;;17.80;49.60;;;;;;1597397;73;710;-73
2023/12/20 12:05:06;;;;;;;;;;;17.70;49.70;;;;;;1567125;74;1149;-76
2023/12/20 12:07:08;;;;;;;;;;;17.80;49.60;;;;;;1581622;74;751;-72